sensor_id;sensor_type;location;lat;lon;timestamp;temperature;humidity
1329;DHT22;658;48.820;9.354;2023-02-19T00:03:11;21.90;43.00
1329;DHT22;658;48.820;9.354;2023-02-19T00:07:11;21.90;43.00
1329;DHT22;658;48.820;9.354;2023-02-19T00:11:19;21.80;43.00
1329;DHT22;658;48.820;9.354;2023-02-19T00:15:20;21.80;43.00
1329;DHT22;658;48.820;9.354;2023-02-19T00:19:20;21.80;43.10
1329;DHT22;658;48.820;9.354;2023-02-19T00:23:21;21.80;43.10
1329;DHT22;658;48.820;9.354;2023-02-19T00:27:22;21.80;43.10
1329;DHT22;658;48.820;9.354;2023-02-19T00:31:23;21.80;43.10
1329;DHT22;658;48.820;9.354;2023-02-19T00:35:24;21.70;43.10
1329;DHT22;658;48.820;9.354;2023-02-19T00:39:24;21.70;43.10
1329;DHT22;658;48.820;9.354;2023-02-19T00:43:25;21.70;43.10
1329;DHT22;658;48.820;9.354;2023-02-19T00:47:25;21.70;43.20
1329;DHT22;658;48.820;9.354;2023-02-19T00:51:27;21.60;43.20
1329;DHT22;658;48.820;9.354;2023-02-19T00:55:28;21.60;43.10
1329;DHT22;658;48.820;9.354;2023-02-19T00:59:28;21.60;43.20
1329;DHT22;658;48.820;9.354;2023-02-19T01:03:29;21.60;43.20
1329;DHT22;658;48.820;9.354;2023-02-19T01:07:29;21.60;43.20
1329;DHT22;658;48.820;9.354;2023-02-19T01:11:30;21.60;43.20
1329;DHT22;658;48.820;9.354;2023-02-19T01:15:33;21.60;43.30
1329;DHT22;658;48.820;9.354;2023-02-19T01:19:34;21.60;43.30
1329;DHT22;658;48.820;9.354;2023-02-19T01:23:34;21.50;43.20
1329;DHT22;658;48.820;9.354;2023-02-19T01:27:35;21.50;43.30
1329;DHT22;658;48.820;9.354;2023-02-19T01:31:37;21.50;43.30
1329;DHT22;658;48.820;9.354;2023-02-19T01:35:38;21.50;43.30
1329;DHT22;658;48.820;9.354;2023-02-19T01:39:39;21.50;43.40
1329;DHT22;658;48.820;9.354;2023-02-19T01:43:54;21.50;43.40
1329;DHT22;658;48.820;9.354;2023-02-19T01:48:00;21.50;43.40
1329;DHT22;658;48.820;9.354;2023-02-19T01:52:04;21.50;43.40
1329;DHT22;658;48.820;9.354;2023-02-19T01:56:07;21.50;43.40
1329;DHT22;658;48.820;9.354;2023-02-19T02:00:09;21.40;43.20
1329;DHT22;658;48.820;9.354;2023-02-19T02:04:10;21.40;43.30
1329;DHT22;658;48.820;9.354;2023-02-19T02:08:12;21.40;43.30
1329;DHT22;658;48.820;9.354;2023-02-19T02:12:32;21.40;43.40
1329;DHT22;658;48.820;9.354;2023-02-19T02:16:46;21.40;43.30
1329;DHT22;658;48.820;9.354;2023-02-19T02:37:16;21.40;43.40
1329;DHT22;658;48.820;9.354;2023-02-19T02:41:17;21.40;43.40
1329;DHT22;658;48.820;9.354;2023-02-19T02:49:36;21.40;43.40
1329;DHT22;658;48.820;9.354;2023-02-19T02:53:58;21.40;43.40
1329;DHT22;658;48.820;9.354;2023-02-19T02:58:19;21.40;43.40
1329;DHT22;658;48.820;9.354;2023-02-19T03:02:24;21.40;43.40
1329;DHT22;658;48.820;9.354;2023-02-19T03:06:25;21.40;43.40
1329;DHT22;658;48.820;9.354;2023-02-19T03:10:31;21.40;43.30
1329;DHT22;658;48.820;9.354;2023-02-19T03:14:35;21.40;43.40
1329;DHT22;658;48.820;9.354;2023-02-19T03:18:55;21.40;43.40
1329;DHT22;658;48.820;9.354;2023-02-19T03:23:17;21.40;43.40
1329;DHT22;658;48.820;9.354;2023-02-19T03:27:18;21.40;43.40
1329;DHT22;658;48.820;9.354;2023-02-19T03:31:21;21.40;43.40
1329;DHT22;658;48.820;9.354;2023-02-19T03:35:24;21.40;43.40
1329;DHT22;658;48.820;9.354;2023-02-19T03:39:26;21.40;43.40
1329;DHT22;658;48.820;9.354;2023-02-19T03:43:33;21.40;43.50
1329;DHT22;658;48.820;9.354;2023-02-19T03:47:44;21.40;43.40
1329;DHT22;658;48.820;9.354;2023-02-19T03:51:50;21.50;43.50
1329;DHT22;658;48.820;9.354;2023-02-19T03:56:06;21.40;43.40
1329;DHT22;658;48.820;9.354;2023-02-19T04:04:20;21.50;43.40
1329;DHT22;658;48.820;9.354;2023-02-19T04:08:21;21.40;43.30
1329;DHT22;658;48.820;9.354;2023-02-19T04:12:23;21.50;43.40
1329;DHT22;658;48.820;9.354;2023-02-19T04:16:25;21.50;43.30
1329;DHT22;658;48.820;9.354;2023-02-19T04:20:28;21.50;43.40
1329;DHT22;658;48.820;9.354;2023-02-19T04:24:35;21.50;43.40
1329;DHT22;658;48.820;9.354;2023-02-19T04:28:37;21.50;43.30
1329;DHT22;658;48.820;9.354;2023-02-19T04:32:38;21.50;43.30
1329;DHT22;658;48.820;9.354;2023-02-19T04:36:38;21.50;43.40
1329;DHT22;658;48.820;9.354;2023-02-19T04:40:39;21.50;43.40
1329;DHT22;658;48.820;9.354;2023-02-19T04:44:39;21.50;43.40
1329;DHT22;658;48.820;9.354;2023-02-19T04:48:40;21.50;43.30
1329;DHT22;658;48.820;9.354;2023-02-19T04:52:42;21.50;43.30
1329;DHT22;658;48.820;9.354;2023-02-19T04:56:42;21.50;43.30
1329;DHT22;658;48.820;9.354;2023-02-19T05:00:43;21.50;43.30
1329;DHT22;658;48.820;9.354;2023-02-19T05:04:43;21.50;43.30
1329;DHT22;658;48.820;9.354;2023-02-19T05:08:44;21.50;43.40
1329;DHT22;658;48.820;9.354;2023-02-19T05:12:44;21.50;43.40
1329;DHT22;658;48.820;9.354;2023-02-19T05:16:45;21.50;43.30
1329;DHT22;658;48.820;9.354;2023-02-19T05:20:45;21.50;43.30
1329;DHT22;658;48.820;9.354;2023-02-19T05:24:46;21.40;43.20
1329;DHT22;658;48.820;9.354;2023-02-19T05:28:47;21.50;43.40
1329;DHT22;658;48.820;9.354;2023-02-19T05:32:48;21.50;43.30
1329;DHT22;658;48.820;9.354;2023-02-19T05:36:49;21.50;43.40
1329;DHT22;658;48.820;9.354;2023-02-19T05:40:49;21.50;43.30
1329;DHT22;658;48.820;9.354;2023-02-19T05:44:50;21.50;43.30
1329;DHT22;658;48.820;9.354;2023-02-19T05:48:51;21.40;43.20
1329;DHT22;658;48.820;9.354;2023-02-19T05:52:52;21.50;43.40
1329;DHT22;658;48.820;9.354;2023-02-19T05:56:52;21.50;43.40
1329;DHT22;658;48.820;9.354;2023-02-19T06:00:53;21.50;43.40
1329;DHT22;658;48.820;9.354;2023-02-19T06:04:53;21.50;43.40
1329;DHT22;658;48.820;9.354;2023-02-19T06:08:54;21.40;43.30
1329;DHT22;658;48.820;9.354;2023-02-19T06:12:54;21.40;43.30
1329;DHT22;658;48.820;9.354;2023-02-19T06:16:55;21.40;43.30
1329;DHT22;658;48.820;9.354;2023-02-19T06:21:02;21.50;43.40
1329;DHT22;658;48.820;9.354;2023-02-19T06:25:03;21.50;43.40
1329;DHT22;658;48.820;9.354;2023-02-19T06:29:04;21.40;43.30
1329;DHT22;658;48.820;9.354;2023-02-19T06:33:04;21.50;43.30
1329;DHT22;658;48.820;9.354;2023-02-19T06:37:05;21.40;43.20
1329;DHT22;658;48.820;9.354;2023-02-19T06:41:05;21.40;43.30
1329;DHT22;658;48.820;9.354;2023-02-19T06:45:06;21.40;43.40
1329;DHT22;658;48.820;9.354;2023-02-19T06:49:07;21.40;43.30
1329;DHT22;658;48.820;9.354;2023-02-19T06:53:07;21.40;43.30
1329;DHT22;658;48.820;9.354;2023-02-19T06:57:10;21.40;43.40
1329;DHT22;658;48.820;9.354;2023-02-19T07:01:11;21.40;43.40
1329;DHT22;658;48.820;9.354;2023-02-19T07:05:11;21.40;43.40
1329;DHT22;658;48.820;9.354;2023-02-19T07:09:11;21.40;43.40
1329;DHT22;658;48.820;9.354;2023-02-19T07:13:12;21.40;43.40
1329;DHT22;658;48.820;9.354;2023-02-19T07:17:12;21.40;43.40
1329;DHT22;658;48.820;9.354;2023-02-19T07:21:13;21.40;43.40
1329;DHT22;658;48.820;9.354;2023-02-19T07:25:14;21.40;43.40
1329;DHT22;658;48.820;9.354;2023-02-19T07:29:15;21.30;43.30
1329;DHT22;658;48.820;9.354;2023-02-19T07:33:15;21.40;43.40
1329;DHT22;658;48.820;9.354;2023-02-19T07:37:16;21.40;43.40
1329;DHT22;658;48.820;9.354;2023-02-19T07:41:16;21.40;43.40
1329;DHT22;658;48.820;9.354;2023-02-19T07:45:17;21.40;43.40
1329;DHT22;658;48.820;9.354;2023-02-19T07:49:17;21.40;43.30
1329;DHT22;658;48.820;9.354;2023-02-19T07:53:18;21.40;43.30
1329;DHT22;658;48.820;9.354;2023-02-19T07:57:19;21.40;43.30
1329;DHT22;658;48.820;9.354;2023-02-19T08:01:20;21.40;43.30
1329;DHT22;658;48.820;9.354;2023-02-19T08:05:41;21.40;43.30
1329;DHT22;658;48.820;9.354;2023-02-19T08:09:42;21.40;43.30
1329;DHT22;658;48.820;9.354;2023-02-19T08:13:42;21.40;43.30
1329;DHT22;658;48.820;9.354;2023-02-19T08:17:43;21.40;43.30
1329;DHT22;658;48.820;9.354;2023-02-19T08:21:43;21.40;43.30
1329;DHT22;658;48.820;9.354;2023-02-19T08:25:44;21.40;43.30
1329;DHT22;658;48.820;9.354;2023-02-19T08:29:44;21.40;43.30
1329;DHT22;658;48.820;9.354;2023-02-19T08:33:45;21.40;43.30
1329;DHT22;658;48.820;9.354;2023-02-19T08:37:45;21.40;43.20
1329;DHT22;658;48.820;9.354;2023-02-19T08:41:46;21.40;43.20
1329;DHT22;658;48.820;9.354;2023-02-19T08:45:47;21.40;43.30
1329;DHT22;658;48.820;9.354;2023-02-19T08:49:47;21.40;43.30
1329;DHT22;658;48.820;9.354;2023-02-19T08:53:48;21.40;43.30
1329;DHT22;658;48.820;9.354;2023-02-19T08:57:48;21.40;43.40
1329;DHT22;658;48.820;9.354;2023-02-19T09:01:49;21.40;43.40
1329;DHT22;658;48.820;9.354;2023-02-19T09:05:51;21.50;43.30
1329;DHT22;658;48.820;9.354;2023-02-19T09:09:52;21.60;43.20
1329;DHT22;658;48.820;9.354;2023-02-19T09:13:54;21.60;43.20
1329;DHT22;658;48.820;9.354;2023-02-19T09:17:55;21.70;43.20
1329;DHT22;658;48.820;9.354;2023-02-19T09:21:55;21.70;43.10
1329;DHT22;658;48.820;9.354;2023-02-19T09:25:57;21.70;43.20
1329;DHT22;658;48.820;9.354;2023-02-19T09:29:59;21.80;43.30
1329;DHT22;658;48.820;9.354;2023-02-19T09:33:59;21.80;43.20
1329;DHT22;658;48.820;9.354;2023-02-19T09:38:00;21.80;43.10
1329;DHT22;658;48.820;9.354;2023-02-19T09:42:13;21.80;43.00
1329;DHT22;658;48.820;9.354;2023-02-19T09:50:37;22.00;43.10
1329;DHT22;658;48.820;9.354;2023-02-19T09:54:38;22.00;43.20
1329;DHT22;658;48.820;9.354;2023-02-19T09:58:42;22.00;43.10
1329;DHT22;658;48.820;9.354;2023-02-19T10:02:46;22.10;42.90
1329;DHT22;658;48.820;9.354;2023-02-19T10:06:50;22.10;42.80
1329;DHT22;658;48.820;9.354;2023-02-19T10:10:51;22.20;42.60
1329;DHT22;658;48.820;9.354;2023-02-19T10:14:54;22.30;42.30
1329;DHT22;658;48.820;9.354;2023-02-19T10:18:55;22.50;42.00
1329;DHT22;658;48.820;9.354;2023-02-19T10:23:00;22.60;41.70
1329;DHT22;658;48.820;9.354;2023-02-19T10:27:01;22.70;41.30
1329;DHT22;658;48.820;9.354;2023-02-19T10:31:03;22.80;41.20
1329;DHT22;658;48.820;9.354;2023-02-19T10:43:24;22.70;41.20
1329;DHT22;658;48.820;9.354;2023-02-19T10:47:30;22.70;41.00
1329;DHT22;658;48.820;9.354;2023-02-19T10:51:35;22.80;41.00
1329;DHT22;658;48.820;9.354;2023-02-19T10:55:37;22.80;41.00
1329;DHT22;658;48.820;9.354;2023-02-19T10:59:50;22.80;40.90
1329;DHT22;658;48.820;9.354;2023-02-19T11:03:51;22.80;40.80
1329;DHT22;658;48.820;9.354;2023-02-19T11:07:53;22.80;40.70
1329;DHT22;658;48.820;9.354;2023-02-19T11:11:54;22.90;40.60
1329;DHT22;658;48.820;9.354;2023-02-19T11:15:55;23.00;40.20
1329;DHT22;658;48.820;9.354;2023-02-19T11:19:57;23.20;40.00
1329;DHT22;658;48.820;9.354;2023-02-19T11:23:59;23.30;39.70
1329;DHT22;658;48.820;9.354;2023-02-19T11:28:04;23.30;39.60
1329;DHT22;658;48.820;9.354;2023-02-19T11:40:24;22.90;40.20
1329;DHT22;658;48.820;9.354;2023-02-19T11:53:13;23.00;40.20
1329;DHT22;658;48.820;9.354;2023-02-19T11:57:14;23.30;39.80
1329;DHT22;658;48.820;9.354;2023-02-19T12:05:42;24.50;37.70
1329;DHT22;658;48.820;9.354;2023-02-19T12:18:04;23.90;38.50
1329;DHT22;658;48.820;9.354;2023-02-19T12:26:18;23.70;39.10
1329;DHT22;658;48.820;9.354;2023-02-19T12:30:39;23.70;39.20
1329;DHT22;658;48.820;9.354;2023-02-19T12:39:06;24.10;38.50
1329;DHT22;658;48.820;9.354;2023-02-19T12:43:12;23.90;38.70
1329;DHT22;658;48.820;9.354;2023-02-19T12:47:18;23.70;39.20
1329;DHT22;658;48.820;9.354;2023-02-19T12:51:29;23.50;39.50
1329;DHT22;658;48.820;9.354;2023-02-19T12:55:34;23.40;39.80
1329;DHT22;658;48.820;9.354;2023-02-19T13:16:16;23.30;40.40
1329;DHT22;658;48.820;9.354;2023-02-19T13:20:36;23.30;40.50
1329;DHT22;658;48.820;9.354;2023-02-19T13:24:39;23.30;40.60
1329;DHT22;658;48.820;9.354;2023-02-19T13:37:03;23.20;40.90
1329;DHT22;658;48.820;9.354;2023-02-19T13:41:04;23.20;40.90
1329;DHT22;658;48.820;9.354;2023-02-19T13:45:05;23.20;41.00
1329;DHT22;658;48.820;9.354;2023-02-19T13:57:39;23.10;41.30
1329;DHT22;658;48.820;9.354;2023-02-19T14:06:00;23.10;41.40
1329;DHT22;658;48.820;9.354;2023-02-19T14:10:03;23.10;41.60
1329;DHT22;658;48.820;9.354;2023-02-19T14:14:13;23.10;41.60
1329;DHT22;658;48.820;9.354;2023-02-19T14:18:39;23.10;41.60
1329;DHT22;658;48.820;9.354;2023-02-19T14:26:46;21.80;42.60
1329;DHT22;658;48.820;9.354;2023-02-19T14:30:58;21.20;43.90
1329;DHT22;658;48.820;9.354;2023-02-19T14:35:00;21.40;43.30
1329;DHT22;658;48.820;9.354;2023-02-19T14:39:01;21.80;42.90
1329;DHT22;658;48.820;9.354;2023-02-19T14:43:03;22.00;42.50
1329;DHT22;658;48.820;9.354;2023-02-19T14:47:06;22.20;42.20
1329;DHT22;658;48.820;9.354;2023-02-19T14:51:11;22.30;42.10
1329;DHT22;658;48.820;9.354;2023-02-19T14:55:14;22.50;41.90
1329;DHT22;658;48.820;9.354;2023-02-19T14:59:22;22.50;41.80
1329;DHT22;658;48.820;9.354;2023-02-19T15:03:24;22.50;42.10
1329;DHT22;658;48.820;9.354;2023-02-19T15:07:29;22.60;41.80
1329;DHT22;658;48.820;9.354;2023-02-19T15:11:30;22.60;41.70
1329;DHT22;658;48.820;9.354;2023-02-19T15:15:33;22.70;41.60
1329;DHT22;658;48.820;9.354;2023-02-19T15:19:34;22.70;41.50
1329;DHT22;658;48.820;9.354;2023-02-19T15:23:35;22.70;41.90
1329;DHT22;658;48.820;9.354;2023-02-19T15:27:37;22.70;41.70
1329;DHT22;658;48.820;9.354;2023-02-19T15:31:45;22.80;41.40
1329;DHT22;658;48.820;9.354;2023-02-19T15:35:49;22.80;41.50
1329;DHT22;658;48.820;9.354;2023-02-19T15:39:50;22.80;41.50
1329;DHT22;658;48.820;9.354;2023-02-19T15:43:54;22.70;41.60
1329;DHT22;658;48.820;9.354;2023-02-19T15:48:01;22.80;41.80
1329;DHT22;658;48.820;9.354;2023-02-19T15:52:04;22.80;42.00
1329;DHT22;658;48.820;9.354;2023-02-19T15:56:07;22.90;42.10
1329;DHT22;658;48.820;9.354;2023-02-19T16:04:34;23.10;43.00
1329;DHT22;658;48.820;9.354;2023-02-19T16:08:38;23.00;42.20
1329;DHT22;658;48.820;9.354;2023-02-19T16:12:39;23.00;42.40
1329;DHT22;658;48.820;9.354;2023-02-19T16:16:40;23.10;42.40
1329;DHT22;658;48.820;9.354;2023-02-19T16:20:41;23.00;42.30
1329;DHT22;658;48.820;9.354;2023-02-19T16:24:46;23.00;42.40
1329;DHT22;658;48.820;9.354;2023-02-19T16:28:51;23.10;42.50
1329;DHT22;658;48.820;9.354;2023-02-19T16:41:31;23.20;42.50
1329;DHT22;658;48.820;9.354;2023-02-19T16:45:31;23.20;42.50
1329;DHT22;658;48.820;9.354;2023-02-19T16:49:32;23.20;42.50
1329;DHT22;658;48.820;9.354;2023-02-19T16:53:33;23.20;42.40
1329;DHT22;658;48.820;9.354;2023-02-19T16:57:33;23.20;42.40
1329;DHT22;658;48.820;9.354;2023-02-19T17:01:34;23.10;42.50
1329;DHT22;658;48.820;9.354;2023-02-19T17:05:35;23.10;42.40
1329;DHT22;658;48.820;9.354;2023-02-19T17:09:36;23.10;42.30
1329;DHT22;658;48.820;9.354;2023-02-19T17:13:36;23.10;42.30
1329;DHT22;658;48.820;9.354;2023-02-19T17:17:37;23.20;42.30
1329;DHT22;658;48.820;9.354;2023-02-19T17:21:39;23.20;42.10
1329;DHT22;658;48.820;9.354;2023-02-19T17:25:40;23.20;42.10
1329;DHT22;658;48.820;9.354;2023-02-19T17:29:40;23.20;42.10
1329;DHT22;658;48.820;9.354;2023-02-19T17:33:41;23.20;42.10
1329;DHT22;658;48.820;9.354;2023-02-19T17:37:42;23.20;42.10
1329;DHT22;658;48.820;9.354;2023-02-19T17:41:42;23.20;42.00
1329;DHT22;658;48.820;9.354;2023-02-19T17:45:43;23.10;41.90
1329;DHT22;658;48.820;9.354;2023-02-19T17:49:43;23.10;42.00
1329;DHT22;658;48.820;9.354;2023-02-19T17:53:44;23.10;42.00
1329;DHT22;658;48.820;9.354;2023-02-19T17:57:46;23.10;41.90
1329;DHT22;658;48.820;9.354;2023-02-19T18:01:47;23.10;41.80
1329;DHT22;658;48.820;9.354;2023-02-19T18:05:47;23.10;42.00
1329;DHT22;658;48.820;9.354;2023-02-19T18:09:48;23.10;41.80
1329;DHT22;658;48.820;9.354;2023-02-19T18:13:49;23.20;41.70
1329;DHT22;658;48.820;9.354;2023-02-19T18:17:50;23.10;41.70
1329;DHT22;658;48.820;9.354;2023-02-19T18:21:51;23.10;41.70
1329;DHT22;658;48.820;9.354;2023-02-19T18:25:51;23.00;42.20
1329;DHT22;658;48.820;9.354;2023-02-19T18:29:52;23.10;41.70
1329;DHT22;658;48.820;9.354;2023-02-19T18:33:53;23.10;41.70
1329;DHT22;658;48.820;9.354;2023-02-19T18:37:53;23.00;41.60
1329;DHT22;658;48.820;9.354;2023-02-19T18:41:55;23.00;41.60
1329;DHT22;658;48.820;9.354;2023-02-19T18:45:57;23.00;41.80
1329;DHT22;658;48.820;9.354;2023-02-19T18:49:57;22.90;42.40
1329;DHT22;658;48.820;9.354;2023-02-19T18:53:58;22.90;42.60
1329;DHT22;658;48.820;9.354;2023-02-19T18:58:01;22.90;42.80
1329;DHT22;658;48.820;9.354;2023-02-19T19:02:01;22.90;42.80
1329;DHT22;658;48.820;9.354;2023-02-19T19:06:04;22.90;42.70
1329;DHT22;658;48.820;9.354;2023-02-19T19:10:05;22.90;42.70
1329;DHT22;658;48.820;9.354;2023-02-19T19:14:06;22.90;42.60
1329;DHT22;658;48.820;9.354;2023-02-19T19:18:07;22.90;42.60
1329;DHT22;658;48.820;9.354;2023-02-19T19:22:08;22.90;42.50
1329;DHT22;658;48.820;9.354;2023-02-19T19:26:10;22.90;42.40
1329;DHT22;658;48.820;9.354;2023-02-19T19:30:11;22.80;42.30
1329;DHT22;658;48.820;9.354;2023-02-19T19:34:12;22.80;42.30
1329;DHT22;658;48.820;9.354;2023-02-19T19:38:12;22.80;42.30
1329;DHT22;658;48.820;9.354;2023-02-19T19:42:13;22.80;42.20
1329;DHT22;658;48.820;9.354;2023-02-19T19:46:14;22.80;42.20
1329;DHT22;658;48.820;9.354;2023-02-19T19:50:20;22.80;42.20
1329;DHT22;658;48.820;9.354;2023-02-19T19:54:21;22.80;42.20
1329;DHT22;658;48.820;9.354;2023-02-19T19:58:22;22.80;42.10
1329;DHT22;658;48.820;9.354;2023-02-19T20:02:24;22.80;42.10
1329;DHT22;658;48.820;9.354;2023-02-19T20:06:26;22.90;42.00
1329;DHT22;658;48.820;9.354;2023-02-19T20:10:27;23.00;42.10
1329;DHT22;658;48.820;9.354;2023-02-19T20:14:28;23.00;42.10
1329;DHT22;658;48.820;9.354;2023-02-19T20:18:29;23.00;42.00
1329;DHT22;658;48.820;9.354;2023-02-19T20:22:29;23.00;42.10
1329;DHT22;658;48.820;9.354;2023-02-19T20:26:30;22.90;42.10
1329;DHT22;658;48.820;9.354;2023-02-19T20:30:31;22.90;42.10
1329;DHT22;658;48.820;9.354;2023-02-19T20:34:32;23.00;42.00
1329;DHT22;658;48.820;9.354;2023-02-19T20:38:32;22.90;41.80
1329;DHT22;658;48.820;9.354;2023-02-19T20:42:33;22.90;41.80
1329;DHT22;658;48.820;9.354;2023-02-19T20:46:40;22.90;41.70
1329;DHT22;658;48.820;9.354;2023-02-19T20:50:41;22.90;41.80
1329;DHT22;658;48.820;9.354;2023-02-19T20:54:42;22.90;42.00
1329;DHT22;658;48.820;9.354;2023-02-19T20:58:43;22.90;42.30
1329;DHT22;658;48.820;9.354;2023-02-19T21:02:44;22.90;42.30
1329;DHT22;658;48.820;9.354;2023-02-19T21:06:45;22.90;42.30
1329;DHT22;658;48.820;9.354;2023-02-19T21:10:45;22.90;42.40
1329;DHT22;658;48.820;9.354;2023-02-19T21:14:46;22.90;42.40
1329;DHT22;658;48.820;9.354;2023-02-19T21:18:47;22.90;42.40
1329;DHT22;658;48.820;9.354;2023-02-19T21:22:47;22.90;42.40
1329;DHT22;658;48.820;9.354;2023-02-19T21:26:48;22.90;42.30
1329;DHT22;658;48.820;9.354;2023-02-19T21:30:49;22.90;42.20
1329;DHT22;658;48.820;9.354;2023-02-19T21:34:50;23.00;42.30
1329;DHT22;658;48.820;9.354;2023-02-19T21:38:50;23.00;42.20
1329;DHT22;658;48.820;9.354;2023-02-19T21:42:51;23.00;42.20
1329;DHT22;658;48.820;9.354;2023-02-19T21:46:51;23.00;42.20
1329;DHT22;658;48.820;9.354;2023-02-19T21:50:52;23.00;42.20
1329;DHT22;658;48.820;9.354;2023-02-19T21:54:53;23.00;42.20
1329;DHT22;658;48.820;9.354;2023-02-19T21:58:54;23.00;42.10
1329;DHT22;658;48.820;9.354;2023-02-19T22:02:55;23.10;42.10
1329;DHT22;658;48.820;9.354;2023-02-19T22:06:56;23.10;42.10
1329;DHT22;658;48.820;9.354;2023-02-19T22:10:57;23.00;41.90
1329;DHT22;658;48.820;9.354;2023-02-19T22:14:57;23.10;42.00
1329;DHT22;658;48.820;9.354;2023-02-19T22:18:58;23.10;42.00
1329;DHT22;658;48.820;9.354;2023-02-19T22:22:59;23.10;42.10
1329;DHT22;658;48.820;9.354;2023-02-19T22:26:59;23.00;42.00
1329;DHT22;658;48.820;9.354;2023-02-19T22:31:00;23.10;42.10
1329;DHT22;658;48.820;9.354;2023-02-19T22:35:01;23.00;41.80
1329;DHT22;658;48.820;9.354;2023-02-19T22:39:03;23.10;41.90
1329;DHT22;658;48.820;9.354;2023-02-19T22:43:04;23.00;41.90
1329;DHT22;658;48.820;9.354;2023-02-19T22:47:05;23.00;41.90
1329;DHT22;658;48.820;9.354;2023-02-19T22:51:13;23.00;41.90
1329;DHT22;658;48.820;9.354;2023-02-19T22:55:15;22.90;41.80
1329;DHT22;658;48.820;9.354;2023-02-19T22:59:16;22.90;41.80
1329;DHT22;658;48.820;9.354;2023-02-19T23:03:16;22.80;41.70
1329;DHT22;658;48.820;9.354;2023-02-19T23:07:17;22.80;41.80
1329;DHT22;658;48.820;9.354;2023-02-19T23:11:23;22.70;41.70
1329;DHT22;658;48.820;9.354;2023-02-19T23:15:24;22.60;41.70
1329;DHT22;658;48.820;9.354;2023-02-19T23:19:25;22.60;41.80
1329;DHT22;658;48.820;9.354;2023-02-19T23:23:26;22.50;41.80
1329;DHT22;658;48.820;9.354;2023-02-19T23:27:26;22.50;41.90
1329;DHT22;658;48.820;9.354;2023-02-19T23:31:27;22.40;41.90
1329;DHT22;658;48.820;9.354;2023-02-19T23:35:28;22.40;41.90
1329;DHT22;658;48.820;9.354;2023-02-19T23:39:30;22.40;41.90
1329;DHT22;658;48.820;9.354;2023-02-19T23:43:30;22.30;42.00
1329;DHT22;658;48.820;9.354;2023-02-19T23:47:31;22.30;42.00
1329;DHT22;658;48.820;9.354;2023-02-19T23:51:31;22.20;41.90
1329;DHT22;658;48.820;9.354;2023-02-19T23:55:32;22.20;42.00
1329;DHT22;658;48.820;9.354;2023-02-19T23:59:33;22.10;42.00
